sensor_id;sensor_type;location;lat;lon;timestamp;P1;durP1;ratioP1;P2;durP2;ratioP2
25988;SDS011;13778;48.236;9.894;2023-07-09T00:03:08;7.93;;;4.35;;
25988;SDS011;13778;48.236;9.894;2023-07-09T00:05:59;8.90;;;4.93;;
25988;SDS011;13778;48.236;9.894;2023-07-09T00:08:50;7.07;;;4.78;;
25988;SDS011;13778;48.236;9.894;2023-07-09T00:11:41;6.68;;;4.60;;
25988;SDS011;13778;48.236;9.894;2023-07-09T00:14:33;7.68;;;4.30;;
25988;SDS011;13778;48.236;9.894;2023-07-09T00:20:16;10.85;;;4.70;;
25988;SDS011;13778;48.236;9.894;2023-07-09T00:23:07;8.38;;;4.63;;
25988;SDS011;13778;48.236;9.894;2023-07-09T00:25:58;10.63;;;5.20;;
25988;SDS011;13778;48.236;9.894;2023-07-09T00:28:48;6.80;;;5.00;;
25988;SDS011;13778;48.236;9.894;2023-07-09T00:31:40;6.72;;;4.88;;
25988;SDS011;13778;48.236;9.894;2023-07-09T00:34:31;8.75;;;4.93;;
25988;SDS011;13778;48.236;9.894;2023-07-09T00:37:21;10.70;;;4.90;;
25988;SDS011;13778;48.236;9.894;2023-07-09T00:40:17;7.70;;;4.95;;
25988;SDS011;13778;48.236;9.894;2023-07-09T00:43:09;7.38;;;5.47;;
25988;SDS011;13778;48.236;9.894;2023-07-09T00:46:14;9.68;;;5.55;;
25988;SDS011;13778;48.236;9.894;2023-07-09T00:49:07;7.33;;;5.47;;
25988;SDS011;13778;48.236;9.894;2023-07-09T00:52:00;9.02;;;6.10;;
25988;SDS011;13778;48.236;9.894;2023-07-09T00:54:51;10.60;;;5.85;;
25988;SDS011;13778;48.236;9.894;2023-07-09T00:57:43;11.43;;;5.57;;
25988;SDS011;13778;48.236;9.894;2023-07-09T01:00:36;9.85;;;5.32;;
25988;SDS011;13778;48.236;9.894;2023-07-09T01:03:36;8.43;;;4.95;;
25988;SDS011;13778;48.236;9.894;2023-07-09T01:06:28;6.80;;;4.85;;
25988;SDS011;13778;48.236;9.894;2023-07-09T01:09:21;10.45;;;5.20;;
25988;SDS011;13778;48.236;9.894;2023-07-09T01:12:12;6.93;;;5.22;;
25988;SDS011;13778;48.236;9.894;2023-07-09T01:15:04;8.40;;;5.18;;
25988;SDS011;13778;48.236;9.894;2023-07-09T01:17:56;9.40;;;5.32;;
25988;SDS011;13778;48.236;9.894;2023-07-09T01:20:47;9.05;;;5.15;;
25988;SDS011;13778;48.236;9.894;2023-07-09T01:23:39;7.97;;;5.45;;
25988;SDS011;13778;48.236;9.894;2023-07-09T01:29:20;6.95;;;5.00;;
25988;SDS011;13778;48.236;9.894;2023-07-09T01:32:11;10.68;;;5.53;;
25988;SDS011;13778;48.236;9.894;2023-07-09T01:35:04;8.45;;;5.13;;
25988;SDS011;13778;48.236;9.894;2023-07-09T01:37:55;9.35;;;5.75;;
25988;SDS011;13778;48.236;9.894;2023-07-09T01:40:47;11.55;;;5.47;;
25988;SDS011;13778;48.236;9.894;2023-07-09T01:46:27;9.07;;;5.60;;
25988;SDS011;13778;48.236;9.894;2023-07-09T01:49:19;6.47;;;5.10;;
25988;SDS011;13778;48.236;9.894;2023-07-09T01:52:10;11.18;;;5.70;;
25988;SDS011;13778;48.236;9.894;2023-07-09T01:55:01;9.55;;;6.03;;
25988;SDS011;13778;48.236;9.894;2023-07-09T01:57:54;8.43;;;5.78;;
25988;SDS011;13778;48.236;9.894;2023-07-09T02:03:34;9.27;;;6.03;;
25988;SDS011;13778;48.236;9.894;2023-07-09T02:06:25;7.40;;;6.10;;
25988;SDS011;13778;48.236;9.894;2023-07-09T02:09:20;9.45;;;5.10;;
25988;SDS011;13778;48.236;9.894;2023-07-09T02:12:11;11.52;;;5.78;;
25988;SDS011;13778;48.236;9.894;2023-07-09T02:15:04;9.83;;;5.57;;
25988;SDS011;13778;48.236;9.894;2023-07-09T02:17:55;9.48;;;5.00;;
25988;SDS011;13778;48.236;9.894;2023-07-09T02:20:48;6.78;;;5.15;;
25988;SDS011;13778;48.236;9.894;2023-07-09T02:23:38;7.20;;;5.07;;
25988;SDS011;13778;48.236;9.894;2023-07-09T02:26:29;8.75;;;5.93;;
25988;SDS011;13778;48.236;9.894;2023-07-09T02:29:20;8.50;;;5.50;;
25988;SDS011;13778;48.236;9.894;2023-07-09T02:32:12;8.45;;;5.75;;
25988;SDS011;13778;48.236;9.894;2023-07-09T02:35:04;11.88;;;6.20;;
25988;SDS011;13778;48.236;9.894;2023-07-09T02:37:54;6.32;;;5.30;;
25988;SDS011;13778;48.236;9.894;2023-07-09T02:40:44;7.28;;;5.70;;
25988;SDS011;13778;48.236;9.894;2023-07-09T02:43:35;9.95;;;5.65;;
25988;SDS011;13778;48.236;9.894;2023-07-09T02:46:25;9.00;;;5.97;;
25988;SDS011;13778;48.236;9.894;2023-07-09T02:49:17;9.68;;;5.35;;
25988;SDS011;13778;48.236;9.894;2023-07-09T02:52:07;8.27;;;5.63;;
25988;SDS011;13778;48.236;9.894;2023-07-09T02:54:58;8.75;;;5.50;;
25988;SDS011;13778;48.236;9.894;2023-07-09T02:57:48;6.63;;;5.20;;
25988;SDS011;13778;48.236;9.894;2023-07-09T03:00:39;12.43;;;5.55;;
25988;SDS011;13778;48.236;9.894;2023-07-09T03:03:29;9.95;;;6.18;;
25988;SDS011;13778;48.236;9.894;2023-07-09T03:06:21;13.32;;;5.93;;
25988;SDS011;13778;48.236;9.894;2023-07-09T03:09:12;8.65;;;5.90;;
25988;SDS011;13778;48.236;9.894;2023-07-09T03:12:03;13.52;;;5.85;;
25988;SDS011;13778;48.236;9.894;2023-07-09T03:14:53;10.48;;;5.43;;
25988;SDS011;13778;48.236;9.894;2023-07-09T03:17:43;13.27;;;5.63;;
25988;SDS011;13778;48.236;9.894;2023-07-09T03:20:34;8.70;;;5.13;;
25988;SDS011;13778;48.236;9.894;2023-07-09T03:23:26;8.95;;;5.55;;
25988;SDS011;13778;48.236;9.894;2023-07-09T03:29:06;12.00;;;6.03;;
25988;SDS011;13778;48.236;9.894;2023-07-09T03:31:57;13.45;;;5.55;;
25988;SDS011;13778;48.236;9.894;2023-07-09T03:34:47;8.38;;;5.07;;
25988;SDS011;13778;48.236;9.894;2023-07-09T03:37:38;8.77;;;5.68;;
25988;SDS011;13778;48.236;9.894;2023-07-09T03:40:30;8.30;;;4.70;;
25988;SDS011;13778;48.236;9.894;2023-07-09T03:43:21;9.73;;;6.05;;
25988;SDS011;13778;48.236;9.894;2023-07-09T03:46:11;9.85;;;6.00;;
25988;SDS011;13778;48.236;9.894;2023-07-09T03:49:01;8.73;;;5.40;;
25988;SDS011;13778;48.236;9.894;2023-07-09T03:51:52;10.63;;;5.95;;
25988;SDS011;13778;48.236;9.894;2023-07-09T03:54:42;10.57;;;6.50;;
25988;SDS011;13778;48.236;9.894;2023-07-09T03:57:34;8.90;;;5.30;;
25988;SDS011;13778;48.236;9.894;2023-07-09T04:00:25;7.80;;;5.80;;
25988;SDS011;13778;48.236;9.894;2023-07-09T04:03:15;11.23;;;6.50;;
25988;SDS011;13778;48.236;9.894;2023-07-09T04:06:06;13.32;;;6.22;;
25988;SDS011;13778;48.236;9.894;2023-07-09T04:08:56;11.02;;;5.88;;
25988;SDS011;13778;48.236;9.894;2023-07-09T04:11:47;12.30;;;6.28;;
25988;SDS011;13778;48.236;9.894;2023-07-09T04:14:39;8.48;;;5.65;;
25988;SDS011;13778;48.236;9.894;2023-07-09T04:17:29;9.52;;;6.10;;
25988;SDS011;13778;48.236;9.894;2023-07-09T04:20:20;8.80;;;6.28;;
25988;SDS011;13778;48.236;9.894;2023-07-09T04:23:10;13.13;;;6.70;;
25988;SDS011;13778;48.236;9.894;2023-07-09T04:26:01;9.67;;;6.50;;
25988;SDS011;13778;48.236;9.894;2023-07-09T04:28:53;14.43;;;6.50;;
25988;SDS011;13778;48.236;9.894;2023-07-09T04:31:45;12.05;;;6.32;;
25988;SDS011;13778;48.236;9.894;2023-07-09T04:34:35;8.75;;;5.95;;
25988;SDS011;13778;48.236;9.894;2023-07-09T04:37:25;9.65;;;6.03;;
25988;SDS011;13778;48.236;9.894;2023-07-09T04:40:17;11.18;;;6.35;;
25988;SDS011;13778;48.236;9.894;2023-07-09T04:43:08;9.63;;;7.28;;
25988;SDS011;13778;48.236;9.894;2023-07-09T04:45:58;8.38;;;7.05;;
25988;SDS011;13778;48.236;9.894;2023-07-09T04:48:50;8.27;;;6.78;;
25988;SDS011;13778;48.236;9.894;2023-07-09T04:54:31;8.20;;;6.38;;
25988;SDS011;13778;48.236;9.894;2023-07-09T04:57:22;10.23;;;6.97;;
25988;SDS011;13778;48.236;9.894;2023-07-09T05:00:13;8.80;;;6.70;;
25988;SDS011;13778;48.236;9.894;2023-07-09T05:03:03;9.52;;;6.18;;
25988;SDS011;13778;48.236;9.894;2023-07-09T05:05:55;9.43;;;6.13;;
25988;SDS011;13778;48.236;9.894;2023-07-09T05:11:37;12.25;;;7.88;;
25988;SDS011;13778;48.236;9.894;2023-07-09T05:14:27;9.68;;;6.68;;
25988;SDS011;13778;48.236;9.894;2023-07-09T05:17:18;12.60;;;6.68;;
25988;SDS011;13778;48.236;9.894;2023-07-09T05:20:09;8.85;;;7.13;;
25988;SDS011;13778;48.236;9.894;2023-07-09T05:23:00;8.93;;;6.65;;
25988;SDS011;13778;48.236;9.894;2023-07-09T05:25:55;7.80;;;5.93;;
25988;SDS011;13778;48.236;9.894;2023-07-09T05:28:45;11.05;;;6.18;;
25988;SDS011;13778;48.236;9.894;2023-07-09T05:31:35;11.60;;;6.20;;
25988;SDS011;13778;48.236;9.894;2023-07-09T05:34:26;9.43;;;6.05;;
25988;SDS011;13778;48.236;9.894;2023-07-09T05:37:17;10.60;;;6.30;;
25988;SDS011;13778;48.236;9.894;2023-07-09T05:40:09;8.50;;;6.30;;
25988;SDS011;13778;48.236;9.894;2023-07-09T05:45:49;10.32;;;6.35;;
25988;SDS011;13778;48.236;9.894;2023-07-09T05:48:40;10.02;;;6.10;;
25988;SDS011;13778;48.236;9.894;2023-07-09T05:51:30;11.10;;;5.82;;
25988;SDS011;13778;48.236;9.894;2023-07-09T05:54:21;8.80;;;6.15;;
25988;SDS011;13778;48.236;9.894;2023-07-09T05:57:12;10.95;;;5.85;;
25988;SDS011;13778;48.236;9.894;2023-07-09T06:02:53;12.02;;;6.30;;
25988;SDS011;13778;48.236;9.894;2023-07-09T06:05:43;7.68;;;6.07;;
25988;SDS011;13778;48.236;9.894;2023-07-09T06:08:34;9.98;;;5.68;;
25988;SDS011;13778;48.236;9.894;2023-07-09T06:11:24;12.00;;;5.80;;
25988;SDS011;13778;48.236;9.894;2023-07-09T06:14:16;8.48;;;5.63;;
25988;SDS011;13778;48.236;9.894;2023-07-09T06:17:07;7.60;;;5.93;;
25988;SDS011;13778;48.236;9.894;2023-07-09T06:19:58;8.40;;;5.95;;
25988;SDS011;13778;48.236;9.894;2023-07-09T06:22:48;8.40;;;6.38;;
25988;SDS011;13778;48.236;9.894;2023-07-09T06:25:39;7.80;;;4.97;;
25988;SDS011;13778;48.236;9.894;2023-07-09T06:28:29;7.20;;;5.63;;
25988;SDS011;13778;48.236;9.894;2023-07-09T06:31:21;6.30;;;4.80;;
25988;SDS011;13778;48.236;9.894;2023-07-09T06:34:13;7.15;;;5.22;;
25988;SDS011;13778;48.236;9.894;2023-07-09T06:37:04;8.05;;;5.20;;
25988;SDS011;13778;48.236;9.894;2023-07-09T06:39:55;7.72;;;4.50;;
25988;SDS011;13778;48.236;9.894;2023-07-09T06:42:45;7.05;;;4.78;;
25988;SDS011;13778;48.236;9.894;2023-07-09T06:45:35;6.22;;;4.45;;
25988;SDS011;13778;48.236;9.894;2023-07-09T06:48:28;6.38;;;4.80;;
25988;SDS011;13778;48.236;9.894;2023-07-09T06:51:18;7.07;;;5.13;;
25988;SDS011;13778;48.236;9.894;2023-07-09T06:54:09;7.68;;;4.88;;
25988;SDS011;13778;48.236;9.894;2023-07-09T06:56:59;8.02;;;5.07;;
25988;SDS011;13778;48.236;9.894;2023-07-09T06:59:50;8.43;;;4.68;;
25988;SDS011;13778;48.236;9.894;2023-07-09T07:02:40;8.40;;;5.22;;
25988;SDS011;13778;48.236;9.894;2023-07-09T07:05:32;8.00;;;4.53;;
25988;SDS011;13778;48.236;9.894;2023-07-09T07:08:23;8.15;;;4.53;;
25988;SDS011;13778;48.236;9.894;2023-07-09T07:11:13;9.20;;;5.18;;
25988;SDS011;13778;48.236;9.894;2023-07-09T07:14:04;8.20;;;4.97;;
25988;SDS011;13778;48.236;9.894;2023-07-09T07:16:55;5.70;;;4.90;;
25988;SDS011;13778;48.236;9.894;2023-07-09T07:19:46;7.50;;;4.38;;
25988;SDS011;13778;48.236;9.894;2023-07-09T07:22:38;5.97;;;4.80;;
25988;SDS011;13778;48.236;9.894;2023-07-09T07:25:28;7.10;;;4.75;;
25988;SDS011;13778;48.236;9.894;2023-07-09T07:28:19;11.38;;;5.10;;
25988;SDS011;13778;48.236;9.894;2023-07-09T07:31:10;6.57;;;4.43;;
25988;SDS011;13778;48.236;9.894;2023-07-09T07:34:00;7.30;;;4.28;;
25988;SDS011;13778;48.236;9.894;2023-07-09T07:36:51;7.43;;;4.55;;
25988;SDS011;13778;48.236;9.894;2023-07-09T07:39:43;6.47;;;4.80;;
25988;SDS011;13778;48.236;9.894;2023-07-09T07:42:33;6.93;;;4.88;;
25988;SDS011;13778;48.236;9.894;2023-07-09T07:45:23;10.10;;;4.35;;
25988;SDS011;13778;48.236;9.894;2023-07-09T07:48:14;8.50;;;5.17;;
25988;SDS011;13778;48.236;9.894;2023-07-09T07:51:05;8.47;;;5.57;;
25988;SDS011;13778;48.236;9.894;2023-07-09T07:56:39;8.70;;;4.15;;
25988;SDS011;13778;48.236;9.894;2023-07-09T07:59:29;5.78;;;4.38;;
25988;SDS011;13778;48.236;9.894;2023-07-09T08:02:22;6.25;;;4.75;;
25988;SDS011;13778;48.236;9.894;2023-07-09T08:05:13;7.03;;;4.88;;
25988;SDS011;13778;48.236;9.894;2023-07-09T08:08:04;6.27;;;4.43;;
25988;SDS011;13778;48.236;9.894;2023-07-09T08:10:59;9.97;;;4.63;;
25988;SDS011;13778;48.236;9.894;2023-07-09T08:13:51;5.43;;;3.97;;
25988;SDS011;13778;48.236;9.894;2023-07-09T08:16:41;5.82;;;4.75;;
25988;SDS011;13778;48.236;9.894;2023-07-09T08:19:32;6.23;;;3.73;;
25988;SDS011;13778;48.236;9.894;2023-07-09T08:22:23;6.35;;;3.95;;
25988;SDS011;13778;48.236;9.894;2023-07-09T08:25:13;6.95;;;4.22;;
25988;SDS011;13778;48.236;9.894;2023-07-09T08:28:03;7.83;;;4.47;;
25988;SDS011;13778;48.236;9.894;2023-07-09T08:30:55;7.70;;;4.18;;
25988;SDS011;13778;48.236;9.894;2023-07-09T08:33:46;5.55;;;4.43;;
25988;SDS011;13778;48.236;9.894;2023-07-09T08:36:37;5.25;;;4.20;;
25988;SDS011;13778;48.236;9.894;2023-07-09T08:39:27;8.50;;;4.67;;
25988;SDS011;13778;48.236;9.894;2023-07-09T08:42:20;7.90;;;4.55;;
25988;SDS011;13778;48.236;9.894;2023-07-09T08:45:15;4.85;;;3.75;;
25988;SDS011;13778;48.236;9.894;2023-07-09T08:48:12;5.13;;;4.07;;
25988;SDS011;13778;48.236;9.894;2023-07-09T08:51:04;7.20;;;4.40;;
25988;SDS011;13778;48.236;9.894;2023-07-09T08:53:58;6.55;;;4.38;;
25988;SDS011;13778;48.236;9.894;2023-07-09T08:56:49;6.63;;;3.78;;
25988;SDS011;13778;48.236;9.894;2023-07-09T08:59:39;5.07;;;3.72;;
25988;SDS011;13778;48.236;9.894;2023-07-09T09:02:31;6.55;;;4.75;;
25988;SDS011;13778;48.236;9.894;2023-07-09T09:05:25;9.50;;;4.40;;
25988;SDS011;13778;48.236;9.894;2023-07-09T09:08:19;9.98;;;4.57;;
25988;SDS011;13778;48.236;9.894;2023-07-09T09:11:14;5.22;;;3.95;;
25988;SDS011;13778;48.236;9.894;2023-07-09T09:14:18;4.57;;;3.95;;
25988;SDS011;13778;48.236;9.894;2023-07-09T09:17:10;8.88;;;4.50;;
25988;SDS011;13778;48.236;9.894;2023-07-09T09:20:03;8.73;;;4.00;;
25988;SDS011;13778;48.236;9.894;2023-07-09T09:23:11;8.43;;;4.60;;
25988;SDS011;13778;48.236;9.894;2023-07-09T09:26:02;5.20;;;4.00;;
25988;SDS011;13778;48.236;9.894;2023-07-09T09:28:59;8.93;;;4.40;;
25988;SDS011;13778;48.236;9.894;2023-07-09T09:31:52;11.23;;;4.22;;
25988;SDS011;13778;48.236;9.894;2023-07-09T09:34:44;5.78;;;4.05;;
25988;SDS011;13778;48.236;9.894;2023-07-09T09:37:34;6.07;;;4.32;;
25988;SDS011;13778;48.236;9.894;2023-07-09T09:40:27;4.97;;;4.03;;
25988;SDS011;13778;48.236;9.894;2023-07-09T09:43:18;4.47;;;3.65;;
25988;SDS011;13778;48.236;9.894;2023-07-09T09:46:12;5.88;;;4.15;;
25988;SDS011;13778;48.236;9.894;2023-07-09T09:49:08;3.55;;;3.08;;
25988;SDS011;13778;48.236;9.894;2023-07-09T09:52:01;5.72;;;4.32;;
25988;SDS011;13778;48.236;9.894;2023-07-09T09:54:52;5.10;;;3.75;;
25988;SDS011;13778;48.236;9.894;2023-07-09T09:57:48;4.00;;;2.90;;
25988;SDS011;13778;48.236;9.894;2023-07-09T10:00:39;6.45;;;3.90;;
25988;SDS011;13778;48.236;9.894;2023-07-09T10:03:33;5.40;;;3.63;;
25988;SDS011;13778;48.236;9.894;2023-07-09T10:06:28;8.93;;;3.85;;
25988;SDS011;13778;48.236;9.894;2023-07-09T10:09:26;4.85;;;3.65;;
25988;SDS011;13778;48.236;9.894;2023-07-09T10:12:18;5.43;;;3.25;;
25988;SDS011;13778;48.236;9.894;2023-07-09T10:15:20;4.20;;;3.55;;
25988;SDS011;13778;48.236;9.894;2023-07-09T10:18:18;4.68;;;3.35;;
25988;SDS011;13778;48.236;9.894;2023-07-09T10:21:15;7.38;;;3.67;;
25988;SDS011;13778;48.236;9.894;2023-07-09T10:24:12;8.07;;;3.55;;
25988;SDS011;13778;48.236;9.894;2023-07-09T10:27:08;6.13;;;3.85;;
25988;SDS011;13778;48.236;9.894;2023-07-09T10:30:02;5.10;;;3.80;;
25988;SDS011;13778;48.236;9.894;2023-07-09T10:32:59;6.50;;;3.60;;
25988;SDS011;13778;48.236;9.894;2023-07-09T10:35:52;6.88;;;3.65;;
25988;SDS011;13778;48.236;9.894;2023-07-09T10:38:45;7.45;;;3.60;;
25988;SDS011;13778;48.236;9.894;2023-07-09T10:41:38;6.30;;;3.70;;
25988;SDS011;13778;48.236;9.894;2023-07-09T10:44:29;6.18;;;3.78;;
25988;SDS011;13778;48.236;9.894;2023-07-09T10:47:25;9.35;;;4.00;;
25988;SDS011;13778;48.236;9.894;2023-07-09T10:50:20;5.35;;;3.45;;
25988;SDS011;13778;48.236;9.894;2023-07-09T10:53:26;7.55;;;4.22;;
25988;SDS011;13778;48.236;9.894;2023-07-09T10:56:19;4.35;;;3.40;;
25988;SDS011;13778;48.236;9.894;2023-07-09T10:59:13;4.78;;;3.85;;
25988;SDS011;13778;48.236;9.894;2023-07-09T11:02:12;5.18;;;3.75;;
25988;SDS011;13778;48.236;9.894;2023-07-09T11:05:05;6.53;;;4.32;;
25988;SDS011;13778;48.236;9.894;2023-07-09T11:07:59;8.48;;;4.25;;
25988;SDS011;13778;48.236;9.894;2023-07-09T11:10:50;6.95;;;4.18;;
25988;SDS011;13778;48.236;9.894;2023-07-09T11:13:43;7.22;;;4.25;;
25988;SDS011;13778;48.236;9.894;2023-07-09T11:16:35;7.35;;;4.38;;
25988;SDS011;13778;48.236;9.894;2023-07-09T11:19:28;6.60;;;4.18;;
25988;SDS011;13778;48.236;9.894;2023-07-09T11:22:20;7.55;;;4.18;;
25988;SDS011;13778;48.236;9.894;2023-07-09T11:25:13;6.25;;;4.35;;
25988;SDS011;13778;48.236;9.894;2023-07-09T11:28:05;10.02;;;4.53;;
25988;SDS011;13778;48.236;9.894;2023-07-09T11:30:55;4.72;;;4.20;;
25988;SDS011;13778;48.236;9.894;2023-07-09T11:34:02;5.95;;;3.95;;
25988;SDS011;13778;48.236;9.894;2023-07-09T11:36:58;5.70;;;4.15;;
25988;SDS011;13778;48.236;9.894;2023-07-09T11:39:48;10.23;;;4.32;;
25988;SDS011;13778;48.236;9.894;2023-07-09T11:42:47;5.03;;;4.23;;
25988;SDS011;13778;48.236;9.894;2023-07-09T11:45:38;6.75;;;4.13;;
25988;SDS011;13778;48.236;9.894;2023-07-09T11:48:32;6.07;;;3.95;;
25988;SDS011;13778;48.236;9.894;2023-07-09T11:51:25;6.00;;;4.20;;
25988;SDS011;13778;48.236;9.894;2023-07-09T11:54:19;7.38;;;4.22;;
25988;SDS011;13778;48.236;9.894;2023-07-09T11:57:10;5.15;;;4.03;;
25988;SDS011;13778;48.236;9.894;2023-07-09T12:00:02;4.57;;;3.67;;
25988;SDS011;13778;48.236;9.894;2023-07-09T12:02:53;7.40;;;4.45;;
25988;SDS011;13778;48.236;9.894;2023-07-09T12:05:46;6.07;;;3.70;;
25988;SDS011;13778;48.236;9.894;2023-07-09T12:08:40;7.57;;;4.32;;
25988;SDS011;13778;48.236;9.894;2023-07-09T12:11:31;8.38;;;4.25;;
25988;SDS011;13778;48.236;9.894;2023-07-09T12:14:22;5.55;;;3.78;;
25988;SDS011;13778;48.236;9.894;2023-07-09T12:17:14;6.90;;;4.33;;
25988;SDS011;13778;48.236;9.894;2023-07-09T12:20:04;5.47;;;4.03;;
25988;SDS011;13778;48.236;9.894;2023-07-09T12:22:55;5.43;;;3.75;;
25988;SDS011;13778;48.236;9.894;2023-07-09T12:25:47;6.75;;;4.18;;
25988;SDS011;13778;48.236;9.894;2023-07-09T12:28:37;6.95;;;3.92;;
25988;SDS011;13778;48.236;9.894;2023-07-09T12:31:29;6.35;;;3.88;;
25988;SDS011;13778;48.236;9.894;2023-07-09T12:34:21;8.02;;;3.90;;
25988;SDS011;13778;48.236;9.894;2023-07-09T12:37:12;6.05;;;4.35;;
25988;SDS011;13778;48.236;9.894;2023-07-09T12:40:03;10.30;;;4.20;;
25988;SDS011;13778;48.236;9.894;2023-07-09T12:42:54;9.10;;;4.38;;
25988;SDS011;13778;48.236;9.894;2023-07-09T12:45:46;6.18;;;3.78;;
25988;SDS011;13778;48.236;9.894;2023-07-09T12:48:37;5.88;;;4.30;;
25988;SDS011;13778;48.236;9.894;2023-07-09T12:51:29;6.10;;;4.53;;
25988;SDS011;13778;48.236;9.894;2023-07-09T12:54:20;9.45;;;4.53;;
25988;SDS011;13778;48.236;9.894;2023-07-09T12:57:13;6.93;;;4.13;;
25988;SDS011;13778;48.236;9.894;2023-07-09T13:00:08;9.77;;;3.90;;
25988;SDS011;13778;48.236;9.894;2023-07-09T13:03:08;6.72;;;3.97;;
25988;SDS011;13778;48.236;9.894;2023-07-09T13:06:02;8.35;;;4.03;;
25988;SDS011;13778;48.236;9.894;2023-07-09T13:08:56;8.05;;;4.40;;
25988;SDS011;13778;48.236;9.894;2023-07-09T13:11:46;7.50;;;4.50;;
25988;SDS011;13778;48.236;9.894;2023-07-09T13:14:36;6.37;;;3.77;;
25988;SDS011;13778;48.236;9.894;2023-07-09T13:17:28;7.10;;;4.80;;
25988;SDS011;13778;48.236;9.894;2023-07-09T13:20:19;7.35;;;4.20;;
25988;SDS011;13778;48.236;9.894;2023-07-09T13:23:10;8.80;;;4.50;;
25988;SDS011;13778;48.236;9.894;2023-07-09T13:26:02;6.95;;;3.85;;
25988;SDS011;13778;48.236;9.894;2023-07-09T13:28:53;6.07;;;4.03;;
25988;SDS011;13778;48.236;9.894;2023-07-09T13:31:43;6.43;;;4.50;;
25988;SDS011;13778;48.236;9.894;2023-07-09T13:34:34;8.05;;;4.10;;
25988;SDS011;13778;48.236;9.894;2023-07-09T13:37:24;8.77;;;4.28;;
25988;SDS011;13778;48.236;9.894;2023-07-09T13:40:15;12.30;;;4.70;;
25988;SDS011;13778;48.236;9.894;2023-07-09T13:43:09;6.60;;;3.92;;
25988;SDS011;13778;48.236;9.894;2023-07-09T13:46:01;5.35;;;3.85;;
25988;SDS011;13778;48.236;9.894;2023-07-09T13:48:52;6.35;;;4.25;;
25988;SDS011;13778;48.236;9.894;2023-07-09T13:51:43;8.43;;;4.70;;
25988;SDS011;13778;48.236;9.894;2023-07-09T13:54:34;6.70;;;4.72;;
25988;SDS011;13778;48.236;9.894;2023-07-09T13:57:26;9.85;;;4.68;;
25988;SDS011;13778;48.236;9.894;2023-07-09T14:00:18;5.90;;;4.00;;
25988;SDS011;13778;48.236;9.894;2023-07-09T14:03:12;5.95;;;4.10;;
25988;SDS011;13778;48.236;9.894;2023-07-09T14:06:04;5.55;;;3.83;;
25988;SDS011;13778;48.236;9.894;2023-07-09T14:08:55;5.65;;;4.13;;
25988;SDS011;13778;48.236;9.894;2023-07-09T14:11:46;5.30;;;4.37;;
25988;SDS011;13778;48.236;9.894;2023-07-09T14:14:37;8.05;;;4.15;;
25988;SDS011;13778;48.236;9.894;2023-07-09T14:17:28;8.60;;;4.68;;
25988;SDS011;13778;48.236;9.894;2023-07-09T14:20:19;7.75;;;4.68;;
25988;SDS011;13778;48.236;9.894;2023-07-09T14:23:10;5.95;;;4.32;;
25988;SDS011;13778;48.236;9.894;2023-07-09T14:28:51;7.03;;;3.90;;
25988;SDS011;13778;48.236;9.894;2023-07-09T14:31:42;8.00;;;4.80;;
25988;SDS011;13778;48.236;9.894;2023-07-09T14:34:34;5.47;;;4.10;;
25988;SDS011;13778;48.236;9.894;2023-07-09T14:37:28;11.45;;;4.60;;
25988;SDS011;13778;48.236;9.894;2023-07-09T14:40:19;5.37;;;4.53;;
25988;SDS011;13778;48.236;9.894;2023-07-09T14:43:09;7.18;;;4.82;;
25988;SDS011;13778;48.236;9.894;2023-07-09T14:46:00;9.10;;;4.13;;
25988;SDS011;13778;48.236;9.894;2023-07-09T14:48:51;5.75;;;4.30;;
25988;SDS011;13778;48.236;9.894;2023-07-09T14:51:43;8.85;;;4.97;;
25988;SDS011;13778;48.236;9.894;2023-07-09T14:54:33;7.53;;;4.22;;
25988;SDS011;13778;48.236;9.894;2023-07-09T14:57:24;7.73;;;4.37;;
25988;SDS011;13778;48.236;9.894;2023-07-09T15:00:15;8.40;;;4.53;;
25988;SDS011;13778;48.236;9.894;2023-07-09T15:03:07;6.18;;;4.47;;
25988;SDS011;13778;48.236;9.894;2023-07-09T15:05:59;8.55;;;4.47;;
25988;SDS011;13778;48.236;9.894;2023-07-09T15:08:52;9.05;;;5.22;;
25988;SDS011;13778;48.236;9.894;2023-07-09T15:11:45;10.55;;;4.68;;
25988;SDS011;13778;48.236;9.894;2023-07-09T15:14:35;7.05;;;4.10;;
25988;SDS011;13778;48.236;9.894;2023-07-09T15:17:26;4.55;;;3.53;;
25988;SDS011;13778;48.236;9.894;2023-07-09T15:20:17;7.30;;;4.67;;
25988;SDS011;13778;48.236;9.894;2023-07-09T15:23:08;7.05;;;4.57;;
25988;SDS011;13778;48.236;9.894;2023-07-09T15:26:01;7.30;;;4.35;;
25988;SDS011;13778;48.236;9.894;2023-07-09T15:28:51;7.00;;;4.28;;
25988;SDS011;13778;48.236;9.894;2023-07-09T15:31:42;5.43;;;4.20;;
25988;SDS011;13778;48.236;9.894;2023-07-09T15:34:33;7.03;;;4.53;;
25988;SDS011;13778;48.236;9.894;2023-07-09T15:37:23;5.43;;;4.63;;
25988;SDS011;13778;48.236;9.894;2023-07-09T15:40:16;7.85;;;4.32;;
25988;SDS011;13778;48.236;9.894;2023-07-09T15:43:08;7.03;;;3.95;;
25988;SDS011;13778;48.236;9.894;2023-07-09T15:45:59;6.20;;;3.92;;
25988;SDS011;13778;48.236;9.894;2023-07-09T15:48:50;5.75;;;4.60;;
25988;SDS011;13778;48.236;9.894;2023-07-09T15:51:40;7.40;;;4.35;;
25988;SDS011;13778;48.236;9.894;2023-07-09T15:54:31;5.20;;;4.10;;
25988;SDS011;13778;48.236;9.894;2023-07-09T15:57:22;7.72;;;5.13;;
25988;SDS011;13778;48.236;9.894;2023-07-09T16:00:15;8.13;;;4.80;;
25988;SDS011;13778;48.236;9.894;2023-07-09T16:03:07;9.45;;;4.78;;
25988;SDS011;13778;48.236;9.894;2023-07-09T16:05:58;6.13;;;4.35;;
25988;SDS011;13778;48.236;9.894;2023-07-09T16:08:49;7.37;;;3.97;;
25988;SDS011;13778;48.236;9.894;2023-07-09T16:11:41;6.57;;;3.75;;
25988;SDS011;13778;48.236;9.894;2023-07-09T16:14:32;6.95;;;4.25;;
25988;SDS011;13778;48.236;9.894;2023-07-09T16:17:24;6.57;;;4.63;;
25988;SDS011;13778;48.236;9.894;2023-07-09T16:20:15;6.38;;;4.57;;
25988;SDS011;13778;48.236;9.894;2023-07-09T16:23:07;7.15;;;4.38;;
25988;SDS011;13778;48.236;9.894;2023-07-09T16:25:58;7.47;;;4.75;;
25988;SDS011;13778;48.236;9.894;2023-07-09T16:28:49;8.03;;;4.10;;
25988;SDS011;13778;48.236;9.894;2023-07-09T16:31:39;5.70;;;4.03;;
25988;SDS011;13778;48.236;9.894;2023-07-09T16:34:31;10.77;;;4.85;;
25988;SDS011;13778;48.236;9.894;2023-07-09T16:37:21;10.10;;;4.50;;
25988;SDS011;13778;48.236;9.894;2023-07-09T16:40:14;11.25;;;4.82;;
25988;SDS011;13778;48.236;9.894;2023-07-09T16:43:10;6.07;;;4.15;;
25988;SDS011;13778;48.236;9.894;2023-07-09T16:46:01;7.85;;;4.32;;
25988;SDS011;13778;48.236;9.894;2023-07-09T16:48:51;8.50;;;3.72;;
25988;SDS011;13778;48.236;9.894;2023-07-09T16:51:44;7.85;;;3.85;;
25988;SDS011;13778;48.236;9.894;2023-07-09T16:54:34;7.35;;;4.65;;
25988;SDS011;13778;48.236;9.894;2023-07-09T16:57:26;12.77;;;4.23;;
25988;SDS011;13778;48.236;9.894;2023-07-09T17:00:22;9.20;;;4.85;;
25988;SDS011;13778;48.236;9.894;2023-07-09T17:03:13;7.95;;;4.10;;
25988;SDS011;13778;48.236;9.894;2023-07-09T17:06:04;5.82;;;4.03;;
25988;SDS011;13778;48.236;9.894;2023-07-09T17:08:56;6.38;;;4.78;;
25988;SDS011;13778;48.236;9.894;2023-07-09T17:11:47;8.90;;;4.32;;
25988;SDS011;13778;48.236;9.894;2023-07-09T17:14:38;7.97;;;4.18;;
25988;SDS011;13778;48.236;9.894;2023-07-09T17:17:29;6.82;;;4.28;;
25988;SDS011;13778;48.236;9.894;2023-07-09T17:20:19;9.00;;;4.60;;
25988;SDS011;13778;48.236;9.894;2023-07-09T17:23:10;7.45;;;4.85;;
25988;SDS011;13778;48.236;9.894;2023-07-09T17:26:01;7.13;;;4.40;;
25988;SDS011;13778;48.236;9.894;2023-07-09T17:28:52;9.82;;;4.03;;
25988;SDS011;13778;48.236;9.894;2023-07-09T17:31:43;8.47;;;4.20;;
25988;SDS011;13778;48.236;9.894;2023-07-09T17:34:34;5.55;;;3.88;;
25988;SDS011;13778;48.236;9.894;2023-07-09T17:37:26;10.70;;;4.75;;
25988;SDS011;13778;48.236;9.894;2023-07-09T17:40:17;10.33;;;4.67;;
25988;SDS011;13778;48.236;9.894;2023-07-09T17:43:11;8.82;;;5.38;;
25988;SDS011;13778;48.236;9.894;2023-07-09T17:46:02;17.45;;;5.70;;